Map

Track Data

SID SEASON NUMBER BASIN SUBBASIN NAME ISO_TIME NATURE LAT LON WMO_WIND WMO_PRES WMO_AGENCY TRACK_TYPE DIST2LAND LANDFALL IFLAG USA_AGENCY USA_ATCF_ID USA_LAT USA_LON USA_RECORD USA_STATUS USA_WIND USA_PRES USA_SSHS USA_R34_NE USA_R34_SE USA_R34_SW USA_R34_NW USA_R50_NE USA_R50_SE USA_R50_SW USA_R50_NW USA_R64_NE USA_R64_SE USA_R64_SW USA_R64_NW USA_POCI USA_ROCI USA_RMW USA_EYE TOKYO_LAT TOKYO_LON TOKYO_GRADE TOKYO_WIND TOKYO_PRES TOKYO_R50_DIR TOKYO_R50_LONG TOKYO_R50_SHORT TOKYO_R30_DIR TOKYO_R30_LONG TOKYO_R30_SHORT TOKYO_LAND CMA_LAT CMA_LON CMA_CAT CMA_WIND CMA_PRES HKO_LAT HKO_LON HKO_CAT HKO_WIND HKO_PRES NEWDELHI_LAT NEWDELHI_LON NEWDELHI_GRADE NEWDELHI_WIND NEWDELHI_PRES NEWDELHI_CI NEWDELHI_DP NEWDELHI_POCI REUNION_LAT REUNION_LON REUNION_TYPE REUNION_WIND REUNION_PRES REUNION_TNUM REUNION_CI REUNION_RMW REUNION_R34_NE REUNION_R34_SE REUNION_R34_SW REUNION_R34_NW REUNION_R50_NE REUNION_R50_SE REUNION_R50_SW REUNION_R50_NW REUNION_R64_NE REUNION_R64_SE REUNION_R64_SW REUNION_R64_NW BOM_LAT BOM_LON BOM_TYPE BOM_WIND BOM_PRES BOM_TNUM BOM_CI BOM_RMW BOM_R34_NE BOM_R34_SE BOM_R34_SW BOM_R34_NW BOM_R50_NE BOM_R50_SE BOM_R50_SW BOM_R50_NW BOM_R64_NE BOM_R64_SE BOM_R64_SW BOM_R64_NW BOM_ROCI BOM_POCI BOM_EYE BOM_POS_METHOD BOM_PRES_METHOD NADI_LAT NADI_LON NADI_CAT NADI_WIND NADI_PRES WELLINGTON_LAT WELLINGTON_LON WELLINGTON_WIND WELLINGTON_PRES DS824_LAT DS824_LON DS824_STAGE DS824_WIND DS824_PRES TD9636_LAT TD9636_LON TD9636_STAGE TD9636_WIND TD9636_PRES TD9635_LAT TD9635_LON TD9635_WIND TD9635_PRES TD9635_ROCI NEUMANN_LAT NEUMANN_LON NEUMANN_CLASS NEUMANN_WIND NEUMANN_PRES MLC_LAT MLC_LON MLC_CLASS MLC_WIND MLC_PRES USA_GUST BOM_GUST BOM_GUST_PER REUNION_GUST REUNION_GUST_PER USA_SEAHGT USA_SEARAD_NE USA_SEARAD_SE USA_SEARAD_SW USA_SEARAD_NW STORM_SPEED STORM_DIR
1861221N13316 1861 19 NA NA NOT_NAMED 1861-08-09 06:00:00 TS 12.5000 -44.0000 main 1220 1164 _____________O -1 12.5000 -44.0000 TD 30 16 274
1861221N13316 1861 19 NA NA NOT_NAMED 1861-08-09 09:00:00 TS 12.5505 -44.8099 main 1172 1121 _____________P -1 12.5505 -44.8099 TD 30 16 274
1861221N13316 1861 19 NA NA NOT_NAMED 1861-08-09 12:00:00 TS 12.6000 -45.6000 main 1121 1079 _____________O -1 12.6000 -45.6000 TD 30 15 274
1861221N13316 1861 19 NA NA NOT_NAMED 1861-08-09 15:00:00 TS 12.6497 -46.3575 main 1072 1034 _____________P -1 12.6497 -46.3575 TD 30 15 274
1861221N13316 1861 19 NA NA NOT_NAMED 1861-08-09 18:00:00 TS 12.7000 -47.1000 main 1034 997 _____________O -1 12.7000 -47.1000 TD 30 15 274
1861221N13316 1861 19 NA NA NOT_NAMED 1861-08-09 21:00:00 TS 12.7573 -47.8500 main 1001 958 _____________P -1 12.7573 -47.8500 TD 30 15 274
1861221N13316 1861 19 NA NA NOT_NAMED 1861-08-10 00:00:00 TS 12.8000 -48.6000 main 958 923 _____________O -1 12.8000 -48.6000 TD 30 15 272
1861221N13316 1861 19 NA NA NOT_NAMED 1861-08-10 03:00:00 TS 12.7997 -49.3426 main 923 890 _____________P -1 12.7997 -49.3426 TD 30 15 270
1861221N13316 1861 19 NA NA NOT_NAMED 1861-08-10 06:00:00 TS 12.8000 -50.1000 main 890 853 _____________O -1 12.8000 -50.1000 TD 30 15 272
1861221N13316 1861 19 NA NA NOT_NAMED 1861-08-10 09:00:00 TS 12.8424 -50.9000 main 853 830 _____________P -1 12.8424 -50.9000 TD 30 16 274
1861221N13316 1861 19 NA NA NOT_NAMED 1861-08-10 12:00:00 TS 12.9000 -51.7000 main 830 808 _____________O -1 12.9000 -51.7000 TD 30 15 274
1861221N13316 1861 19 NA NA NOT_NAMED 1861-08-10 15:00:00 TS 12.9497 -52.4500 main 805 802 _____________P -1 12.9497 -52.4500 TD 30 15 274
1861221N13316 1861 19 NA NA NOT_NAMED 1861-08-10 18:00:00 TS 13.0000 -53.2000 main 802 790 _____________O -1 13.0000 -53.2000 TD 30 15 274
1861221N13316 1861 19 NA NA NOT_NAMED 1861-08-10 21:00:00 TS 13.0574 -54.0000 main 790 726 _____________P -1 13.0574 -54.0000 TD 30 16 274
1861221N13316 1861 19 NA NA NOT_NAMED 1861-08-11 00:00:00 TS 13.1000 -54.8000 main 726 656 _____________O -1 13.1000 -54.8000 TD 30 15 272
1861221N13316 1861 19 NA NA NOT_NAMED 1861-08-11 03:00:00 TS 13.1072 -55.5501 main 646 577 _____________P -1 13.1072 -55.5501 TD 30 15 270
1861221N13316 1861 19 NA NA NOT_NAMED 1861-08-11 06:00:00 TS 13.1000 -56.3000 main 577 502 _____________O -1 13.1000 -56.3000 TD 30 15 268
1861221N13316 1861 19 NA NA NOT_NAMED 1861-08-11 09:00:00 TS 13.0551 -57.1229 main 502 431 _____________P -1 13.0551 -57.1229 TD 30 16 270
1861221N13316 1861 19 NA NA NOT_NAMED 1861-08-11 12:00:00 TS 13.1000 -57.9000 main 431 398 _____________O -1 13.1000 -57.9000 TD 30 14 282
1861221N13316 1861 19 NA NA NOT_NAMED 1861-08-11 15:00:00 TS 13.3546 -58.5298 main 406 390 _____________P -1 13.3546 -58.5298 TD 32 13 297
1861221N13316 1861 19 NA NA NOT_NAMED 1861-08-11 18:00:00 TS 13.7000 -59.1000 main 394 388 _____________O -1 13.7000 -59.1000 TS 35 13 299
1861221N13316 1861 19 NA CS NOT_NAMED 1861-08-11 21:00:00 TS 13.9999 -59.7076 main 395 391 _____________P -1 13.9999 -59.7076 TS 35 13 297
1861221N13316 1861 19 NA CS NOT_NAMED 1861-08-12 00:00:00 TS 14.3000 -60.3000 main 410 408 _____________O -1 14.3000 -60.3000 TS 35 13 298
1861221N13316 1861 19 NA CS NOT_NAMED 1861-08-12 03:00:00 TS 14.5923 -60.8503 main 436 436 _____________P -1 14.5923 -60.8503 TS 35 12 299
1861221N13316 1861 19 NA CS NOT_NAMED 1861-08-12 06:00:00 TS 14.9000 -61.4000 main 470 470 _____________O -1 14.9000 -61.4000 TS 35 13 301
1861221N13316 1861 19 NA CS NOT_NAMED 1861-08-12 09:00:00 TS 15.2499 -61.9925 main 504 431 _____________P -1 15.2499 -61.9925 TS 35 14 301
1861221N13316 1861 19 NA CS NOT_NAMED 1861-08-12 12:00:00 TS 15.6000 -62.6000 main 431 362 _____________O -1 15.6000 -62.6000 TS 35 13 299
1861221N13316 1861 19 NA CS NOT_NAMED 1861-08-12 15:00:00 TS 15.9073 -63.2002 main 362 292 _____________P -1 15.9073 -63.2002 TS 35 13 297
1861221N13316 1861 19 NA CS NOT_NAMED 1861-08-12 18:00:00 TS 16.2000 -63.8000 main 292 224 _____________O -1 16.2000 -63.8000 TS 35 13 297
1861221N13316 1861 19 NA CS NOT_NAMED 1861-08-12 21:00:00 TS 16.4923 -64.3928 main 224 158 _____________P -1 16.4923 -64.3928 TS 35 13 298
1861221N13316 1861 19 NA CS NOT_NAMED 1861-08-13 00:00:00 TS 16.8000 -65.0000 main 158 102 _____________O -1 16.8000 -65.0000 TS 35 14 299
1861221N13316 1861 19 NA CS NOT_NAMED 1861-08-13 03:00:00 TS 17.1499 -65.6426 main 102 44 _____________P -1 17.1499 -65.6426 TS 35 14 299
1861221N13316 1861 19 NA CS NOT_NAMED 1861-08-13 06:00:00 TS 17.5000 -66.3000 main 45 11 _____________O -1 17.5000 -66.3000 TS 35 14 298
1861221N13316 1861 19 NA CS NOT_NAMED 1861-08-13 09:00:00 TS 17.8074 -66.9577 main 15 0 _____________P -1 17.8074 -66.9577 TS 35 14 296
1861221N13316 1861 19 NA CS NOT_NAMED 1861-08-13 12:00:00 TS 18.1000 -67.6000 main 42 23 _____________O -1 18.1000 -67.6000 TS 35 13 296
1861221N13316 1861 19 NA CS NOT_NAMED 1861-08-13 15:00:00 TS 18.3922 -68.2004 main 23 0 _____________P -1 18.3922 -68.2004 TS 37 13 298
1861221N13316 1861 19 NA NA NOT_NAMED 1861-08-13 18:00:00 TS 18.7000 -68.8000 main 0 0 _____________O -1 18.7000 -68.8000 TS 40 14 299
1861221N13316 1861 19 NA NA NOT_NAMED 1861-08-13 21:00:00 TS 19.0499 -69.4500 main 0 0 _____________P -1 19.0499 -69.4500 TS 40 14 300
1861221N13316 1861 19 NA NA NOT_NAMED 1861-08-14 00:00:00 TS 19.4000 -70.1000 main 0 0 _____________O -1 19.4000 -70.1000 TS 40 14 299
1861221N13316 1861 19 NA NA NOT_NAMED 1861-08-14 03:00:00 TS 19.7071 -70.7004 main 0 0 _____________P -1 19.7071 -70.7004 TS 42 13 298
1861221N13316 1861 19 NA NA NOT_NAMED 1861-08-14 06:00:00 TS 20.0000 -71.3000 main 22 22 _____________O -1 20.0000 -71.3000 TS 45 13 297
1861221N13316 1861 19 NA NA NOT_NAMED 1861-08-14 09:00:00 TS 20.2999 -71.9502 main 59 59 _____________P -1 20.2999 -71.9502 TS 47 14 296
1861221N13316 1861 19 NA NA NOT_NAMED 1861-08-14 12:00:00 TS 20.6000 -72.6000 main 68 11 _____________O -1 20.6000 -72.6000 TS 50 13 297
1861221N13316 1861 19 NA NA NOT_NAMED 1861-08-14 15:00:00 TS 20.8996 -73.2003 main 11 0 _____________P -1 20.8996 -73.2003 TS 52 13 298
1861221N13316 1861 19 NA NA NOT_NAMED 1861-08-14 18:00:00 TS 21.2000 -73.8000 main 15 15 _____________O -1 21.2000 -73.8000 TS 55 13 297
1861221N13316 1861 19 NA NA NOT_NAMED 1861-08-14 21:00:00 TS 21.4924 -74.4503 main 94 94 _____________P -1 21.4924 -74.4503 TS 57 14 296
1861221N13316 1861 19 NA NA NOT_NAMED 1861-08-15 00:00:00 TS 21.8000 -75.1000 main 103 98 _____________O -1 21.8000 -75.1000 TS 60 13 299
1861221N13316 1861 19 NA NA NOT_NAMED 1861-08-15 03:00:00 TS 22.1498 -75.7151 main 113 113 _____________P -1 22.1498 -75.7151 TS 60 13 302
1861221N13316 1861 19 NA NA NOT_NAMED 1861-08-15 06:00:00 TS 22.5000 -76.3000 main 121 114 _____________O -1 22.5000 -76.3000 TS 60 12 302
1861221N13316 1861 19 NA NA NOT_NAMED 1861-08-15 09:00:00 TS 22.8071 -76.8504 main 124 124 _____________P -1 22.8071 -76.8504 TS 67 12 301
1861221N13316 1861 19 NA NA NOT_NAMED 1861-08-15 12:00:00 TS 23.1000 -77.4000 main 136 89 _____________O -1 23.1000 -77.4000 HU 75 12 299
1861221N13316 1861 19 NA NA NOT_NAMED 1861-08-15 15:00:00 TS 23.3924 -77.9928 main 89 73 _____________P -1 23.3924 -77.9928 HU 77 13 299
1861221N13316 1861 19 NA NA NOT_NAMED 1861-08-15 18:00:00 TS 23.7000 -78.6000 main 82 82 _____________O -1 23.7000 -78.6000 HU 80 13 302
1861221N13316 1861 19 NA NA NOT_NAMED 1861-08-15 21:00:00 TS 24.0723 -79.1998 main 90 90 _____________P -1 24.0723 -79.1998 HU 80 13 303
1861221N13316 1861 19 NA NA NOT_NAMED 1861-08-16 00:00:00 TS 24.4000 -79.8000 main 98 67 _____________O -1 24.4000 -79.8000 HU 80 12 293
1861221N13316 1861 19 NA NA NOT_NAMED 1861-08-16 03:00:00 TS 24.5422 -80.3937 main 67 45 _____________P -1 24.5422 -80.3937 HU 80 11 285
1861221N13316 1861 19 NA NA NOT_NAMED 1861-08-16 06:00:00 TS 24.7000 -81.0000 main 45 33 _____________O -1 24.7000 -81.0000 HU 80 13 292
1861221N13316 1861 19 NA GM NOT_NAMED 1861-08-16 09:00:00 TS 25.0178 -81.6873 main 55 55 _____________P -1 25.0178 -81.6873 HU 80 14 304
1861221N13316 1861 19 NA GM NOT_NAMED 1861-08-16 12:00:00 TS 25.5000 -82.3000 main 74 68 _____________O -1 25.5000 -82.3000 HU 80 14 322
1861221N13316 1861 19 NA GM NOT_NAMED 1861-08-16 15:00:00 TS 26.1165 -82.6447 main 74 54 _____________P -1 26.1165 -82.6447 HU 77 15 336
1861221N13316 1861 19 NA GM NOT_NAMED 1861-08-16 18:00:00 TS 26.9000 -83.0000 main 59 51 _____________O -1 26.9000 -83.0000 HU 75 21 332
1861221N13316 1861 19 NA GM NOT_NAMED 1861-08-16 21:00:00 TS 27.9337 -83.7186 main 78 78 _____________P -1 27.9337 -83.7186 HU 75 23 327
1861221N13316 1861 19 NA GM NOT_NAMED 1861-08-17 00:00:00 TS 28.8000 -84.4000 main 111 69 _____________O -1 28.8000 -84.4000 HU 75 982 14 323
1861221N13316 1861 19 NA GM NOT_NAMED 1861-08-17 03:00:00 TS 29.0693 -84.6772 main 69 67 _____________P -1 29.0693 -84.6772 HU 75 5 311
1861221N13316 1861 19 NA GM NOT_NAMED 1861-08-17 06:00:00 TS 29.1000 -84.8000 main 67 55 _____________O -1 29.1000 -84.8000 HU 75 2 308
1861221N13316 1861 19 NA GM NOT_NAMED 1861-08-17 09:00:00 TS 29.2036 -84.8743 main 55 33 _____________P -1 29.2036 -84.8743 HU 75 5 311
1861221N13316 1861 19 NA GM NOT_NAMED 1861-08-17 12:00:00 TS 29.4000 -85.2000 main 33 22 _____________O -1 29.4000 -85.2000 HU 75 13 299
1861221N13316 1861 19 NA GM NOT_NAMED 1861-08-17 15:00:00 TS 29.8303 -86.1872 main 53 0 _____________P -1 29.8303 -86.1872 HU 70 20 296
1861221N13316 1861 19 NA GM NOT_NAMED 1861-08-17 18:00:00 TS 30.3000 -87.3000 main 9 0 _____________O -1 30.3000 -87.3000 HU 65 17 297
1861221N13316 1861 19 NA GM NOT_NAMED 1861-08-17 21:00:00 TS 30.6132 -87.9469 main 0 0 _____________P -1 30.6132 -87.9469 HU 57 12 300
1861221N13316 1861 19 NA NA NOT_NAMED 1861-08-18 00:00:00 TS 30.9000 -88.5000 main 0 0 _____________O -1 30.9000 -88.5000 TS 50 12 300
1861221N13316 1861 19 NA NA NOT_NAMED 1861-08-18 03:00:00 TS 31.2345 -89.2057 main 0 0 _____________P -1 31.2345 -89.2057 TS 40 15 299
1861221N13316 1861 19 NA NA NOT_NAMED 1861-08-18 06:00:00 TS 31.6000 -90.0000 main 0 0 _____________O -1 31.6000 -90.0000 TD 30 16 298
1861221N13316 1861 19 NA NA NOT_NAMED 1861-08-18 09:00:00 TS 31.9939 -90.8757 main 0 0 _____________P -1 31.9939 -90.8757 TD 30 17 298
1861221N13316 1861 19 NA NA NOT_NAMED 1861-08-18 12:00:00 TS 32.4000 -91.8000 main 0 _____________O -1 32.4000 -91.8000 TD 30 18 298

About IBTrACS Database

This database is a web-friendly format of International Best Track Archive for Climate Stewardship (IBTrACS), a global best track data archive curated by NOAA dating back to 1842.

Updated: 2021-10-19